createdAt,value
2023-02-03T00:02:31.341Z,6.49
2023-02-03T00:05:18.133Z,6.51
2023-02-03T00:08:05.710Z,6.51
2023-02-03T00:10:52.149Z,6.54
2023-02-03T00:13:37.986Z,6.56
2023-02-03T00:16:23.845Z,6.55
2023-02-03T00:19:09.571Z,6.58
2023-02-03T00:21:56.247Z,6.53
2023-02-03T00:24:43.294Z,6.55
2023-02-03T00:27:29.057Z,6.57
2023-02-03T00:30:14.996Z,6.54
2023-02-03T00:33:01.495Z,6.58
2023-02-03T00:35:47.348Z,6.58
2023-02-03T00:38:33.022Z,6.61
2023-02-03T00:41:20.331Z,6.61
2023-02-03T00:44:06.449Z,6.63
2023-02-03T00:46:52.283Z,6.65
2023-02-03T00:49:37.971Z,6.64
2023-02-03T00:52:23.783Z,6.63
2023-02-03T00:55:09.619Z,6.63
2023-02-03T00:57:56.726Z,6.64
2023-02-03T01:00:42.544Z,6.65
2023-02-03T01:03:28.219Z,6.62
2023-02-03T01:06:15.282Z,6.64
2023-02-03T01:09:02.259Z,6.65
2023-02-03T01:11:48.198Z,6.64
2023-02-03T01:14:35.297Z,6.70
2023-02-03T01:17:23.644Z,6.68
2023-02-03T01:20:12.197Z,6.70
2023-02-03T01:22:58.241Z,6.69
2023-02-03T01:25:43.978Z,6.70
2023-02-03T01:28:29.769Z,6.72
2023-02-03T01:31:17.585Z,6.72
2023-02-03T01:34:04.335Z,6.70
2023-02-03T01:36:50.058Z,6.74
2023-02-03T01:39:36.053Z,6.73
2023-02-03T01:42:22.132Z,6.73
2023-02-03T01:45:08.199Z,6.73
2023-02-03T01:47:56.228Z,6.75
2023-02-03T01:50:42.115Z,6.74
2023-02-03T01:53:27.805Z,6.75
2023-02-03T01:56:14.389Z,6.75
2023-02-03T01:59:00.873Z,6.77
2023-02-03T02:01:47.060Z,6.77
2023-02-03T02:04:35.514Z,6.76
2023-02-03T02:07:21.211Z,6.74
2023-02-03T02:10:07.398Z,6.75
2023-02-03T02:12:53.303Z,6.77
2023-02-03T02:15:41.875Z,6.78
2023-02-03T02:18:36.698Z,6.81
2023-02-03T02:21:27.316Z,6.82
2023-02-03T02:24:18.346Z,6.76
2023-02-03T02:27:06.680Z,6.77
2023-02-03T02:30:01.012Z,6.79
2023-02-03T02:33:01.472Z,6.79
2023-02-03T02:35:50.919Z,6.78
2023-02-03T02:38:41.913Z,6.78
2023-02-03T02:41:29.322Z,6.81
2023-02-03T02:44:17.174Z,6.82
2023-02-03T02:47:04.426Z,6.81
2023-02-03T02:49:53.461Z,6.81
2023-02-03T02:52:40.482Z,6.84
2023-02-03T02:55:28.643Z,6.84
2023-02-03T02:58:18.668Z,6.84
2023-02-03T03:01:04.826Z,6.82
2023-02-03T03:03:50.730Z,6.85
2023-02-03T03:06:38.690Z,6.81
2023-02-03T03:09:25.461Z,6.83
2023-02-03T03:12:13.522Z,6.85
2023-02-03T03:15:00.765Z,6.86
2023-02-03T03:17:48.451Z,6.84
2023-02-03T03:20:34.536Z,6.86
2023-02-03T03:23:22.904Z,6.89
2023-02-03T03:26:10.878Z,6.89
2023-02-03T03:28:58.574Z,6.89
2023-02-03T03:31:44.682Z,6.88
2023-02-03T03:34:30.955Z,6.88
2023-02-03T03:37:17.748Z,6.90
2023-02-03T03:40:07.953Z,6.93
2023-02-03T03:42:54.635Z,6.93
2023-02-03T03:45:42.322Z,6.93
2023-02-03T03:48:29.017Z,6.95
2023-02-03T03:51:16.276Z,6.94
2023-02-03T03:54:03.118Z,6.96
2023-02-03T03:56:51.590Z,6.95
2023-02-03T03:59:38.610Z,6.97
2023-02-03T04:02:24.560Z,6.94
2023-02-03T04:05:11.178Z,6.97
2023-02-03T04:07:57.008Z,6.95
2023-02-03T04:10:43.405Z,6.96
2023-02-03T04:13:30.578Z,6.98
2023-02-03T04:16:16.534Z,6.98
2023-02-03T04:19:02.028Z,7.00
2023-02-03T04:21:48.518Z,6.99
2023-02-03T04:24:34.212Z,7.00
2023-02-03T04:27:19.880Z,7.02
2023-02-03T04:30:07.812Z,7.06
2023-02-03T04:32:53.517Z,7.05
2023-02-03T04:35:39.374Z,7.08
2023-02-03T04:38:25.131Z,7.07
2023-02-03T04:41:10.905Z,7.08
2023-02-03T04:43:56.767Z,7.09
2023-02-03T04:46:43.946Z,7.07
2023-02-03T04:49:29.712Z,7.11
2023-02-03T04:52:15.852Z,7.11
2023-02-03T04:55:01.582Z,7.11
2023-02-03T04:57:47.421Z,7.13
2023-02-03T05:00:33.674Z,7.12
2023-02-03T05:03:20.770Z,7.14
2023-02-03T05:06:06.827Z,7.15
2023-02-03T05:08:52.803Z,7.14
2023-02-03T05:11:38.674Z,7.15
2023-02-03T05:14:24.529Z,7.15
2023-02-03T05:17:10.249Z,7.15
2023-02-03T05:19:57.278Z,7.19
2023-02-03T05:22:43.036Z,7.25
2023-02-03T05:25:28.729Z,7.25
2023-02-03T05:28:14.548Z,7.23
2023-02-03T05:31:01.380Z,7.25
2023-02-03T05:33:47.032Z,7.23
2023-02-03T05:36:34.220Z,7.23
2023-02-03T05:39:19.904Z,7.26
2023-02-03T05:42:04.754Z,7.24
2023-02-03T05:44:50.903Z,7.24
2023-02-03T05:47:36.863Z,7.21
2023-02-03T05:50:22.819Z,7.23
2023-02-03T05:53:10.205Z,7.21
2023-02-03T05:55:55.915Z,7.24
2023-02-03T05:58:41.834Z,7.21
2023-02-03T06:01:27.606Z,7.24
2023-02-03T06:04:13.355Z,7.23
2023-02-03T06:06:59.189Z,7.20
2023-02-03T06:09:46.354Z,7.22
2023-02-03T06:12:32.054Z,7.18
2023-02-03T06:15:18.096Z,7.24
2023-02-03T06:18:04.228Z,7.19
2023-02-03T06:20:50.759Z,7.16
2023-02-03T06:23:36.653Z,7.16
2023-02-03T06:26:23.854Z,7.14
2023-02-03T06:29:09.824Z,7.13
2023-02-03T06:31:55.823Z,7.10
2023-02-03T06:34:42.034Z,7.09
2023-02-03T06:37:27.803Z,7.11
2023-02-03T06:40:13.927Z,7.08
2023-02-03T06:43:01.281Z,7.03
2023-02-03T06:45:47.844Z,6.99
2023-02-03T06:48:33.601Z,7.04
2023-02-03T06:51:19.458Z,7.02
2023-02-03T06:54:05.575Z,6.99
2023-02-03T06:56:51.523Z,6.98
2023-02-03T06:59:39.217Z,6.97
2023-02-03T07:02:25.010Z,6.97
2023-02-03T07:05:10.764Z,7.00
2023-02-03T07:07:57.122Z,6.97
2023-02-03T07:10:43.118Z,6.94
2023-02-03T07:13:28.905Z,6.97
2023-02-03T07:16:16.501Z,6.94
2023-02-03T07:19:02.664Z,6.94
2023-02-03T07:21:48.439Z,6.92
2023-02-03T07:24:34.306Z,6.93
2023-02-03T07:27:20.306Z,6.96
2023-02-03T07:30:06.891Z,6.96
2023-02-03T07:32:55.316Z,6.94
2023-02-03T07:35:41.343Z,6.95
2023-02-03T07:38:27.751Z,6.96
2023-02-03T07:41:13.801Z,6.93
2023-02-03T07:43:59.582Z,6.95
2023-02-03T07:46:45.566Z,6.97
2023-02-03T07:49:33.219Z,6.95
2023-02-03T07:52:21.029Z,6.95
2023-02-03T07:55:08.291Z,6.93
2023-02-03T07:57:54.547Z,6.99
2023-02-03T08:00:40.493Z,6.98
2023-02-03T08:03:26.412Z,7.00
2023-02-03T08:06:13.936Z,7.01
2023-02-03T08:08:59.698Z,7.03
2023-02-03T08:11:45.470Z,7.05
2023-02-03T08:14:31.345Z,7.05
2023-02-03T08:17:17.120Z,7.11
2023-02-03T08:20:02.968Z,7.09
2023-02-03T08:22:49.920Z,7.12
2023-02-03T08:25:35.696Z,7.15
2023-02-03T08:28:21.645Z,7.13
2023-02-03T08:31:11.277Z,7.15
2023-02-03T08:33:57.856Z,7.18
2023-02-03T08:36:44.472Z,7.18
2023-02-03T08:39:32.301Z,7.18
2023-02-03T08:42:18.329Z,7.23
2023-02-03T08:45:05.246Z,7.26
2023-02-03T08:47:51.494Z,7.24
2023-02-03T08:50:37.219Z,7.30
2023-02-03T08:53:22.901Z,7.26
2023-02-03T08:56:10.886Z,7.27
2023-02-03T08:58:56.862Z,7.31
2023-02-03T09:01:44.698Z,7.30
2023-02-03T09:04:30.446Z,7.34
2023-02-03T09:07:16.984Z,7.34
2023-02-03T09:10:03.132Z,7.36
2023-02-03T09:12:50.190Z,7.39
2023-02-03T09:15:35.970Z,7.43
2023-02-03T09:18:21.958Z,7.47
2023-02-03T09:21:08.658Z,7.50
2023-02-03T09:23:54.777Z,7.53
2023-02-03T09:26:40.655Z,7.54
2023-02-03T09:29:28.080Z,7.53
2023-02-03T09:32:15.507Z,7.59
2023-02-03T09:35:01.751Z,7.59
2023-02-03T09:37:48.763Z,7.60
2023-02-03T09:40:35.614Z,7.60
2023-02-03T09:43:25.315Z,7.60
2023-02-03T09:46:14.143Z,7.59
2023-02-03T09:49:00.959Z,7.61
2023-02-03T09:51:49.284Z,7.60
2023-02-03T09:54:38.640Z,7.59
2023-02-03T09:57:25.393Z,7.58
2023-02-03T10:00:15.582Z,7.58
2023-02-03T10:03:05.038Z,7.61
2023-02-03T10:05:55.460Z,7.60
2023-02-03T10:08:48.892Z,7.63
2023-02-03T10:11:49.674Z,7.66
2023-02-03T10:14:39.364Z,7.62
2023-02-03T10:17:29.040Z,7.66
2023-02-03T10:20:17.683Z,7.68
2023-02-03T10:23:04.018Z,7.67
2023-02-03T10:25:57.142Z,7.71
2023-02-03T10:28:45.583Z,7.70
2023-02-03T10:31:33.482Z,7.69
2023-02-03T10:34:20.249Z,7.69
2023-02-03T10:37:10.488Z,7.72
2023-02-03T10:39:56.618Z,7.69
2023-02-03T10:42:56.480Z,7.69
2023-02-03T10:45:42.303Z,7.68
2023-02-03T10:48:28.419Z,7.72
2023-02-03T10:51:16.787Z,7.75
2023-02-03T10:54:03.916Z,7.76
2023-02-03T10:56:50.036Z,7.77
2023-02-03T10:59:37.201Z,7.79
2023-02-03T11:02:25.190Z,7.82
2023-02-03T11:05:12.368Z,7.88
2023-02-03T11:07:58.300Z,7.89
2023-02-03T11:10:45.519Z,7.93
2023-02-03T11:13:31.587Z,7.97
2023-02-03T11:16:17.745Z,7.97
2023-02-03T11:19:03.763Z,8.01
2023-02-03T11:21:49.981Z,8.06
2023-02-03T11:24:38.256Z,8.11
2023-02-03T11:27:27.719Z,8.10
2023-02-03T11:30:15.805Z,8.13
2023-02-03T11:33:01.909Z,8.13
2023-02-03T11:35:54.326Z,8.18
2023-02-03T11:38:42.254Z,8.24
2023-02-03T11:41:30.867Z,8.27
2023-02-03T11:44:22.498Z,8.29
2023-02-03T11:47:08.752Z,8.32
2023-02-03T11:50:06.442Z,8.34
2023-02-03T11:52:58.863Z,8.33
2023-02-03T11:55:47.513Z,8.41
2023-02-03T11:58:44.649Z,8.45
2023-02-03T12:01:43.007Z,8.49
2023-02-03T12:04:47.092Z,8.46
2023-02-03T12:07:39.816Z,8.51
2023-02-03T12:10:29.256Z,8.57
2023-02-03T12:13:23.740Z,8.64
2023-02-03T12:16:12.972Z,8.67
2023-02-03T12:19:04.262Z,8.71
2023-02-03T12:21:51.035Z,8.74
2023-02-03T12:24:38.292Z,8.70
2023-02-03T12:27:27.692Z,8.77
2023-02-03T12:30:15.157Z,8.77
2023-02-03T12:33:01.699Z,8.85
2023-02-03T12:35:49.858Z,8.83
2023-02-03T12:38:36.413Z,8.80
2023-02-03T12:41:22.805Z,8.77
2023-02-03T12:44:09.701Z,8.80
2023-02-03T12:46:57.307Z,8.81
2023-02-03T12:49:43.367Z,8.75
2023-02-03T12:52:31.631Z,8.72
2023-02-03T12:55:19.794Z,8.74
2023-02-03T12:58:06.444Z,8.73
2023-02-03T13:00:53.074Z,8.79
2023-02-03T13:03:40.304Z,8.85
2023-02-03T13:06:27.505Z,8.86
2023-02-03T13:09:19.615Z,8.84
2023-02-03T13:12:07.768Z,8.85
2023-02-03T13:14:54.154Z,8.94
2023-02-03T13:17:42.162Z,9.00
2023-02-03T13:20:31.257Z,9.00
2023-02-03T13:23:17.412Z,9.02
2023-02-03T13:26:11.690Z,9.04
2023-02-03T13:29:04.137Z,9.04
2023-02-03T13:31:51.194Z,9.04
2023-02-03T13:34:40.365Z,9.04
2023-02-03T13:37:33.461Z,9.01
2023-02-03T13:40:21.671Z,8.96
2023-02-03T13:43:12.255Z,8.93
2023-02-03T13:45:58.313Z,8.96
2023-02-03T13:48:44.576Z,9.02
2023-02-03T13:51:34.668Z,8.89
2023-02-03T13:54:23.237Z,8.86
2023-02-03T13:57:22.370Z,8.83
2023-02-03T14:00:32.209Z,8.86
2023-02-03T14:03:18.409Z,8.83
2023-02-03T14:06:04.769Z,8.85
2023-02-03T14:08:52.067Z,8.85
2023-02-03T14:11:41.139Z,8.77
2023-02-03T14:14:43.576Z,8.74
2023-02-03T14:18:02.750Z,8.79
2023-02-03T14:20:57.246Z,8.65
2023-02-03T14:23:45.326Z,8.65
2023-02-03T14:26:33.216Z,8.64
2023-02-03T14:29:25.996Z,8.60
2023-02-03T14:32:12.320Z,8.56
2023-02-03T14:34:58.823Z,8.57
2023-02-03T14:37:53.002Z,8.57
2023-02-03T14:40:39.577Z,8.50
2023-02-03T14:43:28.083Z,8.42
2023-02-03T14:46:32.086Z,8.33
2023-02-03T14:49:23.072Z,8.34
2023-02-03T14:52:13.949Z,8.31
2023-02-03T14:55:14.848Z,8.34
2023-02-03T14:58:02.496Z,8.33
2023-02-03T15:00:48.993Z,8.32
2023-02-03T15:03:35.330Z,8.19
2023-02-03T15:06:36.467Z,8.15
2023-02-03T15:09:24.505Z,8.10
2023-02-03T15:12:20.271Z,8.04
2023-02-03T15:15:19.045Z,8.00
2023-02-03T15:18:19.789Z,7.92
2023-02-03T15:21:06.137Z,7.86
2023-02-03T15:23:52.015Z,7.84
2023-02-03T15:26:45.913Z,7.78
2023-02-03T15:29:32.396Z,7.70
2023-02-03T15:32:20.340Z,7.69
2023-02-03T15:35:07.102Z,7.62
2023-02-03T15:37:53.927Z,7.59
2023-02-03T15:40:42.116Z,7.53
2023-02-03T15:43:29.838Z,7.50
2023-02-03T15:46:18.659Z,7.47
2023-02-03T15:49:07.256Z,7.44
2023-02-03T15:51:56.552Z,7.40
2023-02-03T15:54:42.933Z,7.35
2023-02-03T15:57:29.484Z,7.34
2023-02-03T16:00:26.613Z,7.27
2023-02-03T16:03:16.001Z,7.23
2023-02-03T16:06:08.222Z,7.19
2023-02-03T16:08:54.683Z,7.13
2023-02-03T16:11:41.597Z,7.06
2023-02-03T16:14:34.366Z,7.05
2023-02-03T16:17:24.702Z,7.01
2023-02-03T16:20:24.508Z,7.02
2023-02-03T16:23:19.977Z,6.96
2023-02-03T16:26:18.404Z,6.93
2023-02-03T16:29:31.863Z,6.89
2023-02-03T16:32:36.122Z,6.85
2023-02-03T16:35:39.944Z,6.84
2023-02-03T16:38:44.924Z,6.84
2023-02-03T16:41:48.781Z,6.80
2023-02-03T16:44:52.523Z,6.80
2023-02-03T16:47:56.612Z,6.77
2023-02-03T16:50:53.413Z,6.80
2023-02-03T16:53:41.142Z,6.73
2023-02-03T16:56:27.252Z,6.70
2023-02-03T16:59:13.116Z,6.68
2023-02-03T17:01:59.143Z,6.70
2023-02-03T17:04:44.990Z,6.66
2023-02-03T17:07:30.725Z,6.69
2023-02-03T17:10:18.152Z,6.68
2023-02-03T17:13:04.724Z,6.70
2023-02-03T17:15:52.508Z,6.66
2023-02-03T17:18:39.196Z,6.68
2023-02-03T17:21:25.887Z,6.66
2023-02-03T17:24:12.228Z,6.66
2023-02-03T17:26:59.418Z,6.66
2023-02-03T17:29:45.184Z,6.65
2023-02-03T17:32:31.103Z,6.63
2023-02-03T17:35:17.097Z,6.59
2023-02-03T17:38:02.858Z,6.60
2023-02-03T17:55:50.205Z,6.50
2023-02-03T17:58:35.949Z,6.51
2023-02-03T18:01:24.918Z,6.52
2023-02-03T18:04:11.010Z,6.48
2023-02-03T18:06:56.762Z,6.45
2023-02-03T18:09:42.630Z,6.40
2023-02-03T18:12:29.920Z,6.40
2023-02-03T18:15:16.570Z,6.40
2023-02-03T18:18:03.729Z,6.36
2023-02-03T18:20:49.480Z,6.35
2023-02-03T18:23:35.274Z,6.33
2023-02-03T18:26:21.502Z,6.37
2023-02-03T18:29:07.208Z,6.34
2023-02-03T18:31:52.866Z,6.35
2023-02-03T18:34:40.110Z,6.32
2023-02-03T18:37:26.163Z,6.31
2023-02-03T18:40:12.198Z,6.29
2023-02-03T18:42:58.379Z,6.29
2023-02-03T18:45:44.378Z,6.29
2023-02-03T18:48:30.045Z,6.29
2023-02-03T18:51:18.220Z,6.29
2023-02-03T18:54:04.360Z,6.28
2023-02-03T18:56:50.327Z,6.28
2023-02-03T18:59:36.778Z,6.24
2023-02-03T19:02:25.564Z,6.20
2023-02-03T19:05:11.621Z,6.17
2023-02-03T19:07:59.073Z,6.15
2023-02-03T19:10:44.903Z,6.12
2023-02-03T19:13:30.632Z,6.11
2023-02-03T19:16:17.390Z,6.05
2023-02-03T19:19:03.308Z,6.01
2023-02-03T19:21:49.526Z,5.98
2023-02-03T19:24:36.700Z,5.96
2023-02-03T19:27:22.599Z,5.93
2023-02-03T19:30:09.757Z,5.95
2023-02-03T19:32:55.847Z,5.89
2023-02-03T19:35:41.946Z,5.88
2023-02-03T19:38:28.038Z,5.82
2023-02-03T19:41:15.331Z,5.81
2023-02-03T19:44:01.051Z,5.73
2023-02-03T19:46:46.933Z,5.71
2023-02-03T19:49:33.192Z,5.70
2023-02-03T19:52:18.891Z,5.66
2023-02-03T19:55:05.146Z,5.64
2023-02-03T19:57:53.552Z,5.64
2023-02-03T20:00:39.191Z,5.62
2023-02-03T20:03:25.098Z,5.63
2023-02-03T20:06:11.246Z,5.56
2023-02-03T20:08:59.007Z,5.58
2023-02-03T20:11:44.768Z,5.58
2023-02-03T20:14:32.495Z,5.60
2023-02-03T20:17:18.654Z,5.56
2023-02-03T20:20:05.074Z,5.58
2023-02-03T20:22:50.934Z,5.58
2023-02-03T20:25:36.697Z,5.59
2023-02-03T20:28:23.066Z,5.56
2023-02-03T20:31:10.423Z,5.58
2023-02-03T20:33:56.578Z,5.60
2023-02-03T20:36:42.938Z,5.59
2023-02-03T20:39:28.687Z,5.59
2023-02-03T20:42:15.502Z,5.60
2023-02-03T20:45:01.335Z,5.63
2023-02-03T20:47:48.508Z,5.63
2023-02-03T20:50:42.042Z,5.63
2023-02-03T20:53:28.742Z,5.61
2023-02-03T20:56:15.171Z,5.63
2023-02-03T20:59:00.969Z,5.61
2023-02-03T21:01:47.219Z,5.59
2023-02-03T21:04:52.169Z,5.60
2023-02-03T21:07:39.158Z,5.61
2023-02-03T21:10:25.563Z,5.59
2023-02-03T21:13:19.794Z,5.58
2023-02-03T21:16:12.306Z,5.56
2023-02-03T21:19:00.255Z,5.55
2023-02-03T21:21:47.902Z,5.55
2023-02-03T21:24:35.490Z,5.54
2023-02-03T21:27:23.772Z,5.55
2023-02-03T21:30:22.479Z,5.55
2023-02-03T21:33:26.638Z,5.54
2023-02-03T21:36:15.178Z,5.55
2023-02-03T21:39:02.503Z,5.55
2023-02-03T21:41:48.388Z,5.58
2023-02-03T21:44:35.824Z,5.56
2023-02-03T21:47:22.294Z,5.60
2023-02-03T21:50:23.026Z,5.59
2023-02-03T21:53:18.755Z,5.58
2023-02-03T21:56:15.181Z,5.58
2023-02-03T21:59:01.137Z,5.62
2023-02-03T22:01:47.119Z,5.62
2023-02-03T22:04:33.157Z,5.65
2023-02-03T22:07:19.353Z,5.65
2023-02-03T22:10:05.316Z,5.69
2023-02-03T22:12:52.412Z,5.69
2023-02-03T22:15:38.581Z,5.66
2023-02-03T22:18:24.625Z,5.66
2023-02-03T22:21:10.704Z,5.66
2023-02-03T22:23:56.500Z,5.64
2023-02-03T22:26:42.272Z,5.63
2023-02-03T22:29:29.447Z,5.62
2023-02-03T22:32:15.285Z,5.62
2023-02-03T22:35:01.094Z,5.61
2023-02-03T22:37:47.284Z,5.61
2023-02-03T22:40:33.173Z,5.59
2023-02-03T22:43:19.501Z,5.58
2023-02-03T22:46:07.077Z,5.60
2023-02-03T22:48:53.093Z,5.59
2023-02-03T22:51:39.995Z,5.63
2023-02-03T22:54:26.226Z,5.63
2023-02-03T22:57:12.403Z,5.59
2023-02-03T22:59:58.373Z,5.62
2023-02-03T23:02:45.823Z,5.59
2023-02-03T23:05:32.082Z,5.57
2023-02-03T23:08:18.550Z,5.59
2023-02-03T23:11:04.581Z,5.60
2023-02-03T23:13:50.332Z,5.57
2023-02-03T23:16:36.550Z,5.52
2023-02-03T23:19:24.645Z,5.37
2023-02-03T23:22:10.780Z,5.40
2023-02-03T23:24:56.634Z,5.37
2023-02-03T23:27:42.642Z,5.31
2023-02-03T23:30:29.510Z,5.26
2023-02-03T23:33:15.440Z,5.23
2023-02-03T23:36:01.464Z,5.21
2023-02-03T23:38:47.360Z,5.14
2023-02-03T23:41:33.286Z,5.08
2023-02-03T23:44:19.228Z,4.99
2023-02-03T23:47:05.146Z,4.97
2023-02-03T23:49:50.875Z,4.89
2023-02-03T23:52:38.065Z,4.89
2023-02-03T23:55:23.820Z,4.80
2023-02-03T23:58:09.530Z,4.75
